Time;durP1;ratioP1;P1;durP2;ratioP2;P2;SDS_P1;SDS_P2;PMS_P1;PMS_P2;Temp;Humidity;BMP_temperature;BMP_pressure;BME280_temperature;BME280_humidity;BME280_pressure;Samples;Min_cycle;Max_cycle;Signal;HPM_P1;HPM_P2
2023/09/24 00:00:50;;;;;;;1.70;1.60;;;23.50;41.50;;;;;;4996496;28;20457;-69
2023/09/24 00:03:16;;;;;;;1.80;1.70;;;23.40;41.30;;;;;;4999962;28;20444;-61
2023/09/24 00:05:42;;;;;;;1.73;1.63;;;23.40;41.30;;;;;;4995507;28;20502;-67
2023/09/24 00:08:08;;;;;;;1.90;1.80;;;23.50;41.40;;;;;;5000142;28;20258;-61
2023/09/24 00:10:34;;;;;;;1.70;1.60;;;23.40;41.30;;;;;;4997750;28;20531;-70
2023/09/24 00:13:00;;;;;;;1.87;1.77;;;23.40;41.20;;;;;;4998445;28;20459;-63
2023/09/24 00:15:27;;;;;;;2.80;1.60;;;23.40;41.10;;;;;;4997426;28;20223;-60
2023/09/24 00:17:52;;;;;;;2.13;1.63;;;23.40;41.10;;;;;;5000315;28;20223;-61
2023/09/24 00:20:19;;;;;;;1.60;1.50;;;23.40;41.10;;;;;;4998369;28;20468;-62
2023/09/24 00:22:46;;;;;;;1.53;1.43;;;23.40;41.10;;;;;;4997549;28;20218;-63
2023/09/24 00:25:14;;;;;;;1.60;1.50;;;23.40;41.00;;;;;;4996028;28;21714;-63
2023/09/24 00:27:40;;;;;;;1.50;1.40;;;23.40;41.00;;;;;;5000005;28;20467;-60
2023/09/24 00:30:06;;;;;;;1.50;1.40;;;23.40;40.90;;;;;;4997464;28;20463;-67
2023/09/24 00:32:32;;;;;;;1.60;1.50;;;23.40;40.90;;;;;;4998906;28;20460;-62
2023/09/24 00:34:58;;;;;;;1.60;1.50;;;23.40;40.80;;;;;;4997889;28;20514;-61
2023/09/24 00:37:24;;;;;;;1.60;1.50;;;23.40;40.90;;;;;;5003642;28;20226;-61
2023/09/24 00:39:50;;;;;;;1.53;1.43;;;23.40;40.90;;;;;;5003184;28;20215;-60
2023/09/24 00:42:15;;;;;;;1.97;1.83;;;23.40;40.80;;;;;;5002585;28;20551;-63
2023/09/24 00:44:41;;;;;;;1.60;1.50;;;23.40;40.70;;;;;;4995816;28;20223;-68
2023/09/24 00:47:08;;;;;;;1.63;1.53;;;23.40;40.70;;;;;;5002897;28;20226;-60
2023/09/24 00:49:34;;;;;;;1.60;1.50;;;23.40;40.70;;;;;;4986551;28;20786;-68
2023/09/24 00:52:00;;;;;;;1.70;1.60;;;23.40;40.70;;;;;;5001342;28;20480;-63
2023/09/24 00:54:26;;;;;;;1.60;1.50;;;23.40;40.70;;;;;;5003892;28;20222;-65
2023/09/24 00:56:52;;;;;;;1.70;1.60;;;23.40;40.70;;;;;;5000031;28;20222;-61
2023/09/24 00:59:18;;;;;;;1.67;1.57;;;23.40;40.60;;;;;;5003992;28;20215;-63
2023/09/24 01:01:44;;;;;;;1.50;1.40;;;23.40;40.60;;;;;;5005489;28;20955;-68
2023/09/24 01:04:11;;;;;;;1.90;1.60;;;23.40;40.60;;;;;;5000220;28;20321;-67
2023/09/24 01:06:37;;;;;;;1.73;1.63;;;23.40;40.50;;;;;;5000069;28;21375;-60
2023/09/24 01:09:05;;;;;;;1.70;1.60;;;23.40;40.50;;;;;;5002337;28;20586;-64
2023/09/24 01:11:33;;;;;;;1.77;1.50;;;23.40;40.50;;;;;;5002797;28;20378;-61
2023/09/24 01:13:59;;;;;;;1.53;1.43;;;23.40;40.50;;;;;;5000799;28;20456;-61
2023/09/24 01:16:24;;;;;;;1.70;1.60;;;23.40;40.50;;;;;;5000406;28;20483;-61
2023/09/24 01:18:51;;;;;;;1.33;1.20;;;23.40;40.40;;;;;;5003219;28;20735;-62
2023/09/24 01:21:17;;;;;;;1.80;1.70;;;23.40;40.30;;;;;;4998929;28;20227;-67
2023/09/24 01:23:45;;;;;;;1.47;1.37;;;23.40;40.30;;;;;;5002982;28;20579;-64
2023/09/24 01:26:12;;;;;;;2.30;1.63;;;23.40;40.30;;;;;;5003218;28;21100;-66
2023/09/24 01:28:39;;;;;;;1.70;1.60;;;23.40;40.30;;;;;;5003896;28;20490;-69
2023/09/24 01:31:05;;;;;;;1.70;1.60;;;23.30;40.20;;;;;;5004377;28;21816;-61
2023/09/24 01:33:36;;;;;;;3.10;1.93;;;23.30;40.20;;;;;;5002772;28;20563;-59
2023/09/24 01:36:02;;;;;;;2.90;1.60;;;23.30;40.10;;;;;;5000121;28;20460;-68
2023/09/24 01:38:28;;;;;;;1.60;1.50;;;23.40;40.20;;;;;;4997396;28;20457;-63
2023/09/24 01:40:54;;;;;;;1.60;1.50;;;23.30;40.10;;;;;;5002839;28;20515;-63
2023/09/24 01:43:19;;;;;;;3.57;1.50;;;23.30;40.10;;;;;;5000803;28;20670;-67
2023/09/24 01:45:45;;;;;;;1.40;1.30;;;23.40;40.10;;;;;;5000456;28;20350;-63
2023/09/24 01:48:11;;;;;;;1.50;1.40;;;23.30;40.00;;;;;;5000479;28;20222;-63
2023/09/24 01:50:37;;;;;;;1.50;1.40;;;23.30;40.00;;;;;;4998457;28;20235;-62
2023/09/24 01:53:04;;;;;;;4.03;1.60;;;23.30;40.00;;;;;;4998926;28;20911;-60
2023/09/24 01:55:30;;;;;;;1.50;1.40;;;23.30;39.90;;;;;;4997924;28;20270;-64
2023/09/24 01:57:59;;;;;;;1.60;1.50;;;23.30;39.80;;;;;;4999637;28;20468;-61
2023/09/24 02:00:25;;;;;;;4.10;1.50;;;23.30;39.80;;;;;;5001291;28;21237;-63
2023/09/24 02:02:52;;;;;;;1.60;1.50;;;23.30;39.80;;;;;;5000212;28;20468;-62
2023/09/24 02:05:19;;;;;;;2.40;1.40;;;23.30;39.90;;;;;;5000380;28;20475;-67
2023/09/24 02:07:45;;;;;;;2.10;1.60;;;23.30;39.70;;;;;;5002249;28;20534;-61
2023/09/24 02:10:13;;;;;;;1.50;1.33;;;23.30;39.70;;;;;;4999580;28;20568;-67
2023/09/24 02:12:39;;;;;;;1.57;1.47;;;23.30;39.60;;;;;;5003311;28;20503;-66
2023/09/24 02:15:12;;;;;;;1.47;1.37;;;23.30;39.60;;;;;;5001724;28;20557;-67
2023/09/24 02:17:42;;;;;;;1.60;1.50;;;23.30;39.50;;;;;;5002346;28;20219;-59
2023/09/24 02:20:18;;;;;;;1.60;1.50;;;23.30;39.60;;;;;;4996679;28;20465;-66
2023/09/24 02:22:50;;;;;;;1.47;1.30;;;23.30;39.60;;;;;;5002347;28;20472;-69
2023/09/24 02:25:20;;;;;;;1.40;1.30;;;23.30;39.50;;;;;;5001224;28;20464;-60
2023/09/24 02:27:49;;;;;;;1.50;1.40;;;23.30;39.50;;;;;;5002678;28;20535;-65
2023/09/24 02:30:15;;;;;;;1.50;1.40;;;23.30;40.20;;;;;;5001416;28;20872;-61
2023/09/24 02:32:42;;;;;;;1.20;1.10;;;23.30;39.40;;;;;;4995566;28;20467;-62
2023/09/24 02:35:11;;;;;;;1.40;1.30;;;23.30;39.40;;;;;;5000987;28;20500;-62
2023/09/24 02:37:38;;;;;;;1.80;1.40;;;23.30;39.30;;;;;;5001666;28;20511;-61
2023/09/24 02:40:18;;;;;;;3.20;1.23;;;23.30;39.30;;;;;;4996545;28;20497;-68
2023/09/24 02:42:49;;;;;;;1.40;1.30;;;23.30;39.30;;;;;;5003982;28;20479;-63
2023/09/24 02:45:18;;;;;;;1.80;1.67;;;23.30;39.30;;;;;;4999032;28;20460;-64
2023/09/24 02:47:49;;;;;;;1.27;1.13;;;23.30;39.30;;;;;;4999081;28;20467;-65
2023/09/24 02:50:15;;;;;;;1.60;1.50;;;23.30;39.20;;;;;;5001518;28;20491;-62
2023/09/24 02:52:48;;;;;;;1.53;1.40;;;23.30;39.20;;;;;;5000769;28;20467;-59
2023/09/24 02:55:15;;;;;;;1.40;1.30;;;23.30;39.20;;;;;;4999854;28;20231;-66
2023/09/24 02:57:42;;;;;;;1.80;1.57;;;23.30;39.20;;;;;;4998010;28;20464;-66
2023/09/24 03:00:15;;;;;;;1.40;1.30;;;23.30;39.10;;;;;;5000725;28;20474;-60
2023/09/24 03:02:41;;;;;;;1.20;1.10;;;23.30;39.10;;;;;;4999585;28;20464;-66
2023/09/24 03:05:11;;;;;;;1.40;1.30;;;23.30;39.20;;;;;;5002651;28;20475;-62
2023/09/24 03:07:40;;;;;;;1.30;1.20;;;23.30;39.00;;;;;;4996767;28;20776;-67
2023/09/24 03:10:07;;;;;;;1.40;1.30;;;23.30;39.60;;;;;;4999250;28;21054;-60
2023/09/24 03:12:34;;;;;;;1.40;1.30;;;23.30;39.00;;;;;;4996112;28;20457;-61
2023/09/24 03:15:01;;;;;;;1.30;1.20;;;23.20;38.80;;;;;;5001884;28;20579;-62
2023/09/24 03:17:27;;;;;;;1.47;1.37;;;23.30;39.00;;;;;;4999042;28;20464;-60
2023/09/24 03:19:52;;;;;;;1.20;1.10;;;23.20;38.80;;;;;;5005239;28;20462;-63
2023/09/24 03:22:18;;;;;;;1.63;1.53;;;23.20;38.80;;;;;;4997238;28;21134;-67
2023/09/24 03:24:44;;;;;;;1.17;1.07;;;23.30;38.80;;;;;;4997845;28;20243;-66
2023/09/24 03:27:09;;;;;;;2.07;1.30;;;23.20;38.70;;;;;;4998609;28;20354;-63
2023/09/24 03:29:35;;;;;;;2.40;1.20;;;23.20;38.70;;;;;;4999251;28;20242;-63
2023/09/24 03:32:00;;;;;;;1.50;1.40;;;23.20;38.60;;;;;;4997021;28;20235;-61
2023/09/24 03:34:26;;;;;;;1.67;1.37;;;23.30;38.60;;;;;;4999993;28;20225;-68
2023/09/24 03:36:51;;;;;;;1.40;1.30;;;23.20;38.60;;;;;;4996324;28;20218;-64
2023/09/24 03:39:17;;;;;;;1.30;1.20;;;23.30;38.60;;;;;;4994465;28;20258;-70
2023/09/24 03:41:43;;;;;;;1.37;1.20;;;23.20;38.50;;;;;;4995632;28;20230;-60
2023/09/24 03:44:08;;;;;;;1.30;1.20;;;23.20;38.50;;;;;;4997513;28;20451;-65
2023/09/24 03:46:34;;;;;;;1.20;1.10;;;23.20;38.30;;;;;;4999502;28;20289;-67
2023/09/24 03:49:00;;;;;;;1.60;1.50;;;23.20;38.30;;;;;;4999373;28;20241;-69
2023/09/24 03:51:25;;;;;;;1.37;1.27;;;23.20;38.20;;;;;;4996144;28;20761;-60
2023/09/24 03:53:51;;;;;;;1.30;1.20;;;23.20;38.30;;;;;;4996450;28;20218;-62
2023/09/24 03:56:17;;;;;;;1.40;1.30;;;23.20;38.50;;;;;;5002198;28;20271;-60
2023/09/24 03:58:43;;;;;;;1.97;1.30;;;23.20;38.20;;;;;;4998957;28;20222;-62
2023/09/24 04:01:09;;;;;;;1.67;1.23;;;23.20;38.20;;;;;;4999271;28;20515;-59
2023/09/24 04:03:36;;;;;;;1.37;1.27;;;23.20;38.10;;;;;;4997779;28;20926;-61
2023/09/24 04:06:10;;;;;;;4.90;1.20;;;23.20;38.10;;;;;;4998731;28;20452;-61
2023/09/24 04:08:36;;;;;;;1.20;1.10;;;23.20;38.00;;;;;;4999438;28;20472;-61
2023/09/24 04:11:06;;;;;;;1.33;1.23;;;23.20;38.00;;;;;;5004137;28;20578;-61
2023/09/24 04:13:32;;;;;;;1.17;1.07;;;23.20;38.00;;;;;;5002653;28;20683;-60
2023/09/24 04:16:05;;;;;;;1.20;1.10;;;23.20;38.00;;;;;;4999529;28;20523;-61
2023/09/24 04:18:31;;;;;;;1.30;1.20;;;23.20;37.90;;;;;;5000897;28;20219;-64
2023/09/24 04:20:56;;;;;;;1.17;1.07;;;23.20;37.90;;;;;;5006179;28;20478;-61
2023/09/24 04:23:23;;;;;;;1.20;1.10;;;23.20;37.80;;;;;;5002245;28;20249;-59
2023/09/24 04:25:51;;;;;;;1.33;1.03;;;23.20;37.80;;;;;;5002949;28;20219;-69
2023/09/24 04:28:19;;;;;;;2.27;1.40;;;23.20;37.70;;;;;;5001785;28;20479;-65
2023/09/24 04:30:45;;;;;;;1.40;1.30;;;23.20;37.80;;;;;;5005251;28;20480;-62
2023/09/24 04:33:10;;;;;;;1.40;1.30;;;23.20;37.70;;;;;;5000168;28;20855;-65
2023/09/24 04:35:36;;;;;;;1.40;1.30;;;23.20;37.70;;;;;;4998690;28;20249;-63
2023/09/24 04:38:02;;;;;;;1.30;1.20;;;23.20;37.70;;;;;;5003723;28;20219;-59
2023/09/24 04:40:28;;;;;;;1.33;1.23;;;23.20;37.60;;;;;;5003714;28;21143;-61
2023/09/24 04:42:54;;;;;;;1.30;1.20;;;23.20;37.60;;;;;;5000318;28;20345;-63
2023/09/24 04:45:20;;;;;;;1.23;1.07;;;23.20;37.60;;;;;;5001739;28;20218;-62
2023/09/24 04:47:46;;;;;;;1.70;1.20;;;23.20;37.50;;;;;;4999187;28;20541;-63
2023/09/24 04:50:12;;;;;;;1.50;1.40;;;23.20;37.40;;;;;;5002980;28;20227;-61
2023/09/24 04:52:41;;;;;;;1.27;1.17;;;23.20;37.40;;;;;;4999871;28;21568;-59
2023/09/24 04:55:10;;;;;;;1.40;1.30;;;23.20;37.30;;;;;;5002467;28;21027;-61
2023/09/24 04:57:35;;;;;;;1.20;1.10;;;23.20;37.30;;;;;;5004849;28;20469;-60
2023/09/24 05:00:02;;;;;;;1.40;1.30;;;23.20;37.20;;;;;;5004749;28;20489;-63
2023/09/24 05:02:28;;;;;;;1.30;1.20;;;23.20;37.10;;;;;;5002774;28;20313;-62
2023/09/24 05:04:54;;;;;;;1.37;1.20;;;23.20;37.10;;;;;;5000266;28;20961;-63
2023/09/24 05:07:19;;;;;;;1.40;1.20;;;23.20;37.00;;;;;;5000751;28;20263;-60
2023/09/24 05:09:45;;;;;;;1.30;1.20;;;23.20;37.00;;;;;;4998889;28;21137;-63
2023/09/24 05:12:13;;;;;;;2.60;1.37;;;23.20;37.00;;;;;;4997439;28;20254;-69
2023/09/24 05:14:39;;;;;;;1.40;1.20;;;23.20;37.00;;;;;;5001616;28;20246;-60
2023/09/24 05:17:04;;;;;;;1.60;1.50;;;23.20;36.80;;;;;;4994456;28;20676;-63
2023/09/24 05:19:30;;;;;;;1.30;1.20;;;23.20;36.80;;;;;;5004044;28;21046;-68
2023/09/24 05:21:56;;;;;;;1.40;1.27;;;23.20;36.70;;;;;;4999688;28;20885;-69
2023/09/24 05:24:21;;;;;;;1.60;1.50;;;23.20;36.70;;;;;;4998510;28;20445;-69
2023/09/24 05:26:47;;;;;;;1.50;1.30;;;23.20;36.60;;;;;;5001750;28;20336;-66
2023/09/24 05:29:12;;;;;;;1.83;1.53;;;23.20;36.60;;;;;;5004609;28;20246;-62
2023/09/24 05:31:38;;;;;;;1.63;1.40;;;23.20;36.50;;;;;;5000783;28;20377;-62
2023/09/24 05:34:05;;;;;;;1.40;1.30;;;23.20;36.50;;;;;;4996626;28;20253;-71
2023/09/24 05:36:32;;;;;;;1.47;1.37;;;23.20;36.50;;;;;;4997239;28;20257;-72
2023/09/24 05:38:58;;;;;;;1.63;1.53;;;23.20;36.50;;;;;;4998890;28;20491;-63
2023/09/24 05:41:24;;;;;;;1.50;1.40;;;23.20;36.50;;;;;;5001485;28;20923;-62
2023/09/24 05:43:50;;;;;;;2.27;1.70;;;23.20;36.50;;;;;;5003685;28;20448;-66
2023/09/24 05:46:15;;;;;;;3.00;1.37;;;23.20;36.50;;;;;;5003006;28;20223;-61
2023/09/24 05:48:41;;;;;;;1.40;1.30;;;23.20;36.50;;;;;;4998986;28;20238;-69
2023/09/24 05:51:07;;;;;;;1.43;1.33;;;23.20;36.50;;;;;;5001489;28;20234;-63
2023/09/24 05:53:33;;;;;;;1.30;1.20;;;23.20;36.50;;;;;;4998460;28;20288;-66
2023/09/24 05:55:59;;;;;;;1.60;1.43;;;23.20;36.60;;;;;;5001518;28;20790;-69
2023/09/24 05:58:25;;;;;;;1.63;1.33;;;23.20;36.80;;;;;;4994137;28;20475;-66
2023/09/24 06:00:51;;;;;;;1.40;1.30;;;23.20;36.90;;;;;;5001277;28;20460;-64
2023/09/24 06:03:17;;;;;;;1.40;1.30;;;23.20;37.00;;;;;;4999375;28;20222;-62
2023/09/24 06:05:42;;;;;;;1.30;1.20;;;23.20;37.10;;;;;;5000500;28;20497;-73
2023/09/24 06:08:08;;;;;;;1.53;1.40;;;23.20;37.20;;;;;;4997358;28;20677;-60
2023/09/24 06:10:36;;;;;;;2.17;1.33;;;23.20;37.20;;;;;;4993521;28;21298;-67
2023/09/24 06:13:02;;;;;;;1.87;1.30;;;23.20;37.30;;;;;;5002245;28;20749;-59
2023/09/24 06:15:28;;;;;;;2.37;1.30;;;23.30;37.40;;;;;;5000096;28;20468;-63
2023/09/24 06:17:53;;;;;;;1.70;1.20;;;23.30;37.50;;;;;;5000825;28;20245;-60
2023/09/24 06:20:19;;;;;;;1.50;1.40;;;23.20;37.60;;;;;;5006166;28;20258;-63
2023/09/24 06:22:53;;;;;;;1.53;1.43;;;23.20;37.60;;;;;;4995076;28;20230;-61
2023/09/24 06:25:19;;;;;;;1.50;1.40;;;23.30;37.80;;;;;;5005317;28;22242;-66
2023/09/24 06:27:44;;;;;;;1.23;1.13;;;23.20;37.80;;;;;;5002076;28;20532;-62
2023/09/24 06:30:10;;;;;;;1.40;1.30;;;23.20;37.90;;;;;;5004883;28;20222;-71
2023/09/24 06:32:36;;;;;;;1.40;1.30;;;23.20;37.90;;;;;;4986130;28;20266;-63
2023/09/24 06:35:03;;;;;;;1.27;1.17;;;23.30;38.10;;;;;;5007328;28;20316;-62
2023/09/24 06:37:30;;;;;;;1.73;1.30;;;23.30;38.20;;;;;;4999216;28;20915;-61
2023/09/24 06:39:55;;;;;;;2.03;1.30;;;23.20;38.30;;;;;;5003631;28;20570;-78
2023/09/24 06:42:21;;;;;;;1.20;1.10;;;23.20;38.20;;;;;;5004310;28;20444;-68
2023/09/24 06:44:48;;;;;;;1.40;1.30;;;23.30;38.40;;;;;;5005268;28;20223;-60
2023/09/24 06:47:13;;;;;;;1.33;1.23;;;23.30;38.40;;;;;;5004378;28;20411;-64
2023/09/24 06:49:39;;;;;;;1.77;1.50;;;23.30;38.50;;;;;;5001556;28;20507;-60
2023/09/24 06:52:04;;;;;;;1.57;1.33;;;23.20;38.40;;;;;;5000556;28;20253;-68
2023/09/24 06:54:32;;;;;;;1.20;1.10;;;23.20;38.40;;;;;;5001867;28;20235;-64
2023/09/24 06:56:58;;;;;;;1.77;1.00;;;23.20;38.40;;;;;;5006622;28;20215;-60
2023/09/24 06:59:24;;;;;;;1.40;1.30;;;23.20;38.30;;;;;;5009807;28;21039;-59
2023/09/24 07:01:50;;;;;;;1.27;1.17;;;23.20;38.20;;;;;;5004975;28;20219;-66
2023/09/24 07:04:15;;;;;;;2.03;1.30;;;23.30;38.40;;;;;;5005396;28;20943;-59
2023/09/24 07:06:41;;;;;;;4.70;1.40;;;23.30;38.40;;;;;;5008568;28;20231;-59
2023/09/24 07:09:07;;;;;;;1.50;1.33;;;23.30;38.40;;;;;;5008455;28;20301;-61
2023/09/24 07:11:36;;;;;;;1.20;1.10;;;23.20;38.30;;;;;;5008741;28;20234;-61
2023/09/24 07:14:04;;;;;;;2.83;1.37;;;23.20;38.30;;;;;;5008652;28;20264;-61
2023/09/24 07:16:29;;;;;;;2.63;1.30;;;23.30;38.40;;;;;;5009862;28;20494;-61
2023/09/24 07:18:56;;;;;;;1.20;1.10;;;23.30;38.40;;;;;;5009423;28;20574;-67
2023/09/24 07:21:25;;;;;;;1.40;1.20;;;23.30;38.50;;;;;;5008612;28;20261;-65
2023/09/24 07:23:51;;;;;;;2.07;1.20;;;23.20;38.40;;;;;;5008833;28;20467;-60
2023/09/24 07:26:17;;;;;;;1.20;1.10;;;23.30;38.60;;;;;;5008310;28;20456;-67
2023/09/24 07:28:43;;;;;;;1.57;1.07;;;23.30;38.70;;;;;;5007929;28;20229;-64
2023/09/24 07:31:22;;;;;;;1.40;1.30;;;23.30;38.60;;;;;;5007272;28;20235;-58
2023/09/24 07:33:52;;;;;;;2.43;1.30;;;23.30;38.60;;;;;;5008632;28;20254;-59
2023/09/24 07:36:19;;;;;;;1.37;1.27;;;23.20;38.60;;;;;;5006392;28;20465;-62
2023/09/24 07:38:45;;;;;;;1.30;1.20;;;23.30;38.60;;;;;;5009493;28;20436;-65
2023/09/24 07:41:11;;;;;;;1.23;1.13;;;23.30;38.70;;;;;;5008384;28;20497;-61
2023/09/24 07:43:38;;;;;;;1.40;1.30;;;23.30;38.70;;;;;;5009783;28;20234;-67
2023/09/24 07:46:07;;;;;;;1.30;1.20;;;23.30;38.70;;;;;;5005440;28;20463;-62
2023/09/24 07:48:32;;;;;;;1.40;1.20;;;23.30;38.70;;;;;;5001432;28;20461;-61
2023/09/24 07:50:58;;;;;;;1.50;1.40;;;23.30;38.80;;;;;;5000935;28;20476;-60
2023/09/24 07:53:24;;;;;;;1.10;1.00;;;23.30;38.70;;;;;;5005745;28;20210;-64
2023/09/24 07:56:07;;;;;;;1.13;1.00;;;23.30;38.80;;;;;;5005520;28;20249;-59
2023/09/24 07:58:33;;;;;;;3.63;1.20;;;23.30;38.80;;;;;;5001363;28;20337;-63
2023/09/24 08:01:10;;;;;;;1.40;1.30;;;23.30;38.80;;;;;;5002600;28;20464;-66
2023/09/24 08:03:37;;;;;;;1.13;1.03;;;23.30;38.90;;;;;;5001196;28;21575;-62
2023/09/24 08:06:04;;;;;;;1.30;1.20;;;23.30;39.00;;;;;;4996292;28;20460;-62
2023/09/24 08:08:30;;;;;;;1.30;1.20;;;23.30;39.00;;;;;;4992006;28;20965;-68
2023/09/24 08:10:56;;;;;;;1.30;1.20;;;23.30;39.10;;;;;;4996138;28;21280;-62
2023/09/24 08:13:22;;;;;;;0.90;0.90;;;23.30;39.10;;;;;;4997903;28;20466;-60
2023/09/24 08:15:48;;;;;;;1.10;1.00;;;23.30;39.20;;;;;;5001804;28;20487;-60
2023/09/24 08:18:15;;;;;;;1.33;1.10;;;23.30;39.10;;;;;;5000022;28;20219;-60
2023/09/24 08:20:41;;;;;;;1.93;1.13;;;23.30;39.10;;;;;;5008132;28;20492;-63
2023/09/24 08:23:07;;;;;;;1.40;1.30;;;23.30;39.20;;;;;;5003519;28;20527;-63
2023/09/24 08:25:33;;;;;;;1.20;1.10;;;23.30;39.20;;;;;;5000175;28;21005;-58
2023/09/24 08:27:59;;;;;;;1.20;1.10;;;23.30;39.20;;;;;;5001129;28;20234;-59
2023/09/24 08:30:31;;;;;;;1.30;1.20;;;23.30;39.30;;;;;;4998194;28;20460;-63
2023/09/24 08:32:56;;;;;;;1.20;1.10;;;23.30;39.30;;;;;;4986290;28;21705;-60
2023/09/24 08:35:22;;;;;;;1.27;1.17;;;23.30;39.30;;;;;;4998679;28;21537;-59
2023/09/24 08:37:48;;;;;;;1.20;1.10;;;23.30;39.30;;;;;;5000412;28;20571;-66
2023/09/24 08:40:15;;;;;;;2.13;1.30;;;23.30;39.40;;;;;;5000484;28;20247;-62
2023/09/24 08:42:46;;;;;;;1.13;1.00;;;23.40;39.50;;;;;;5002648;28;20475;-66
2023/09/24 08:45:14;;;;;;;1.30;1.20;;;23.30;39.40;;;;;;5000249;28;20476;-63
2023/09/24 08:47:40;;;;;;;1.20;1.10;;;23.40;39.50;;;;;;5002330;28;20467;-60
2023/09/24 08:50:07;;;;;;;1.10;1.00;;;23.40;39.60;;;;;;5000373;28;21054;-68
2023/09/24 08:52:40;;;;;;;1.27;1.17;;;23.30;39.50;;;;;;4996727;28;20598;-63
2023/09/24 08:55:09;;;;;;;0.97;0.97;;;23.30;39.50;;;;;;4997425;28;20531;-63
2023/09/24 08:57:35;;;;;;;1.30;1.20;;;23.30;39.60;;;;;;5001576;28;20496;-62
2023/09/24 09:00:04;;;;;;;0.83;0.83;;;23.30;39.60;;;;;;5002917;28;20463;-61
2023/09/24 09:02:30;;;;;;;1.10;1.00;;;23.40;39.80;;;;;;4999483;28;20979;-72
2023/09/24 09:04:56;;;;;;;1.10;1.00;;;23.40;40.50;;;;;;5004593;28;21190;-71
2023/09/24 09:07:21;;;;;;;1.03;0.93;;;23.40;39.80;;;;;;5003766;28;20230;-63
2023/09/24 09:09:55;;;;;;;1.10;1.00;;;23.30;39.70;;;;;;5005268;28;20476;-66
2023/09/24 09:12:23;;;;;;;1.10;1.00;;;23.40;39.80;;;;;;4986664;28;20430;-64
2023/09/24 09:14:49;;;;;;;3.07;1.10;;;23.40;39.90;;;;;;5004610;28;20971;-63
2023/09/24 09:17:15;;;;;;;1.50;1.00;;;23.40;39.90;;;;;;5002841;28;20483;-69
2023/09/24 09:19:57;;;;;;;1.10;1.00;;;23.40;40.00;;;;;;5007750;28;20568;-60
2023/09/24 09:22:27;;;;;;;1.40;1.00;;;23.40;40.00;;;;;;5007644;28;20856;-61
2023/09/24 09:25:03;;;;;;;1.10;1.00;;;23.40;40.00;;;;;;5011547;28;20463;-62
2023/09/24 09:27:42;;;;;;;1.23;1.10;;;23.40;40.10;;;;;;4991529;28;20641;-60
2023/09/24 09:30:13;;;;;;;1.03;0.90;;;23.40;40.10;;;;;;5003157;28;20594;-68
2023/09/24 09:32:39;;;;;;;1.20;1.10;;;23.40;40.20;;;;;;5006734;28;20595;-59
2023/09/24 09:35:05;;;;;;;1.20;1.00;;;23.40;40.20;;;;;;5006545;28;20597;-59
2023/09/24 09:37:31;;;;;;;1.10;1.00;;;23.40;40.30;;;;;;5008683;28;20234;-60
2023/09/24 09:39:56;;;;;;;1.37;1.27;;;23.40;40.30;;;;;;5010620;28;20456;-59
2023/09/24 09:42:25;;;;;;;1.17;1.10;;;23.40;40.30;;;;;;5011401;28;20240;-72
2023/09/24 09:44:54;;;;;;;1.20;1.10;;;23.40;40.40;;;;;;5008585;28;20229;-62
2023/09/24 09:47:24;;;;;;;1.73;1.17;;;23.40;40.50;;;;;;5010172;28;20444;-70
2023/09/24 09:50:01;;;;;;;3.23;1.00;;;23.40;40.50;;;;;;5011410;28;20497;-58
2023/09/24 09:52:43;;;;;;;1.30;1.20;;;23.40;40.70;;;;;;4998253;28;21163;-59
2023/09/24 09:55:09;;;;;;;0.90;0.90;;;23.40;40.60;;;;;;5003606;28;20471;-73
2023/09/24 09:57:35;;;;;;;1.03;0.97;;;23.40;40.70;;;;;;5004073;28;20523;-62
2023/09/24 10:00:06;;;;;;;1.10;1.00;;;23.40;40.80;;;;;;5001326;28;20487;-63
2023/09/24 10:02:34;;;;;;;0.90;0.90;;;23.50;40.90;;;;;;5001620;28;20471;-72
2023/09/24 10:05:01;;;;;;;0.93;0.93;;;23.40;40.80;;;;;;5004484;28;20464;-67
2023/09/24 10:07:27;;;;;;;1.20;1.10;;;23.40;40.90;;;;;;5004223;28;20967;-61
2023/09/24 10:09:53;;;;;;;0.90;0.90;;;23.40;40.90;;;;;;5004327;28;20464;-70
2023/09/24 10:12:36;;;;;;;1.10;1.00;;;23.50;41.10;;;;;;5004978;28;20234;-65
2023/09/24 10:15:28;;;;;;;0.80;0.80;;;23.50;41.10;;;;;;5000907;28;20341;-63
2023/09/24 10:18:22;;;;;;;0.83;0.83;;;23.40;41.00;;;;;;5005992;28;20460;-70
2023/09/24 10:21:02;;;;;;;1.03;0.93;;;23.40;41.10;;;;;;5003958;28;20468;-63
2023/09/24 10:23:30;;;;;;;0.90;0.90;;;23.50;41.20;;;;;;5002090;28;20472;-60
2023/09/24 10:26:02;;;;;;;0.80;0.80;;;23.50;41.30;;;;;;5002198;28;21004;-66
2023/09/24 10:28:50;;;;;;;0.80;0.70;;;23.40;41.20;;;;;;5001665;28;20498;-59
2023/09/24 10:31:22;;;;;;;0.90;0.80;;;23.50;41.30;;;;;;5002561;28;20463;-59
2023/09/24 10:33:57;;;;;;;0.90;0.90;;;23.50;41.50;;;;;;4997618;28;20451;-62
2023/09/24 10:36:31;;;;;;;1.17;1.00;;;23.50;41.50;;;;;;5000610;28;20458;-70
2023/09/24 10:39:03;;;;;;;1.73;0.90;;;23.50;41.50;;;;;;5003114;28;20472;-73
2023/09/24 10:41:29;;;;;;;1.00;0.90;;;23.50;41.50;;;;;;5000440;28;20523;-61
2023/09/24 10:44:23;;;;;;;0.70;0.70;;;23.50;41.40;;;;;;5005571;28;20464;-69
2023/09/24 10:46:49;;;;;;;0.83;0.83;;;23.50;41.40;;;;;;5002375;28;20680;-62
2023/09/24 10:49:24;;;;;;;0.80;0.80;;;23.50;41.40;;;;;;4999340;28;20986;-65
2023/09/24 10:51:59;;;;;;;0.90;0.90;;;23.50;41.40;;;;;;4999472;28;20494;-61
2023/09/24 10:54:25;;;;;;;1.00;0.90;;;23.50;42.20;;;;;;5004521;28;21244;-64
2023/09/24 10:56:50;;;;;;;0.80;0.80;;;23.50;41.40;;;;;;4999629;28;20535;-62
2023/09/24 10:59:16;;;;;;;1.40;0.90;;;23.50;41.40;;;;;;5003571;28;20269;-70
2023/09/24 11:01:42;;;;;;;0.90;0.90;;;23.50;41.30;;;;;;4995029;28;20298;-63
2023/09/24 11:04:24;;;;;;;0.80;0.70;;;23.50;41.30;;;;;;5000672;28;20219;-60
2023/09/24 11:06:50;;;;;;;0.80;0.80;;;23.50;41.30;;;;;;4997574;28;20464;-63
2023/09/24 11:09:22;;;;;;;1.70;0.90;;;23.50;41.30;;;;;;5003871;28;20990;-72
2023/09/24 11:11:48;;;;;;;0.80;0.80;;;23.50;41.30;;;;;;5003349;28;20246;-64
2023/09/24 11:14:23;;;;;;;0.80;0.80;;;23.50;41.20;;;;;;5003634;28;20452;-61
2023/09/24 11:16:53;;;;;;;1.00;0.90;;;23.50;41.30;;;;;;5000406;28;20217;-71
2023/09/24 11:19:41;;;;;;;0.87;0.80;;;23.50;41.30;;;;;;5004946;28;20551;-67
2023/09/24 11:22:24;;;;;;;1.30;0.90;;;23.50;41.20;;;;;;5007387;28;20475;-64
2023/09/24 11:25:09;;;;;;;2.83;0.77;;;23.50;41.20;;;;;;5001728;28;20469;-68
2023/09/24 11:27:56;;;;;;;1.07;0.97;;;23.50;41.30;;;;;;5007228;28;20512;-66
2023/09/24 11:30:23;;;;;;;0.80;0.80;;;23.50;41.20;;;;;;5007826;28;20441;-60
2023/09/24 11:32:51;;;;;;;0.90;0.80;;;23.50;41.20;;;;;;5002619;28;20448;-61
2023/09/24 11:35:19;;;;;;;1.00;0.90;;;23.50;41.20;;;;;;4998830;28;20460;-67
2023/09/24 11:37:52;;;;;;;0.90;0.80;;;23.50;41.20;;;;;;5001202;28;20464;-60
2023/09/24 11:40:24;;;;;;;0.70;0.70;;;23.50;41.20;;;;;;5006380;28;20515;-66
2023/09/24 11:42:50;;;;;;;0.97;0.87;;;23.60;41.40;;;;;;5003060;28;20473;-70
2023/09/24 11:45:16;;;;;;;0.80;0.80;;;23.60;41.30;;;;;;5005922;28;20506;-66
2023/09/24 11:47:42;;;;;;;0.80;0.80;;;23.50;41.20;;;;;;5006208;28;20476;-61
2023/09/24 11:50:07;;;;;;;0.90;0.90;;;23.60;41.30;;;;;;4997664;28;20638;-62
2023/09/24 11:52:33;;;;;;;1.20;1.10;;;23.60;41.30;;;;;;4996312;28;20258;-69
2023/09/24 11:54:58;;;;;;;1.00;0.80;;;23.60;41.30;;;;;;4994859;28;20254;-68
2023/09/24 11:57:24;;;;;;;0.90;0.90;;;23.60;41.30;;;;;;5001879;28;20614;-59
2023/09/24 11:59:50;;;;;;;0.90;0.90;;;23.60;41.30;;;;;;4999098;28;20229;-62
2023/09/24 12:02:15;;;;;;;0.80;0.80;;;23.60;41.40;;;;;;5003927;28;20255;-64
2023/09/24 12:04:41;;;;;;;1.10;0.90;;;23.60;41.40;;;;;;5000701;28;20233;-63
2023/09/24 12:07:07;;;;;;;0.80;0.80;;;23.60;41.40;;;;;;4996837;28;20218;-65
2023/09/24 12:09:32;;;;;;;0.77;0.77;;;23.60;41.40;;;;;;4999805;28;20254;-60
2023/09/24 12:11:58;;;;;;;1.77;1.00;;;23.60;41.40;;;;;;4996140;28;20234;-60
2023/09/24 12:14:23;;;;;;;1.07;0.90;;;23.60;41.40;;;;;;4999413;28;20676;-64
2023/09/24 12:16:49;;;;;;;1.20;1.10;;;23.60;41.40;;;;;;4999316;28;20215;-58
2023/09/24 12:19:14;;;;;;;0.80;0.80;;;23.60;41.40;;;;;;5007530;28;20295;-65
2023/09/24 12:21:40;;;;;;;1.10;1.00;;;23.60;41.50;;;;;;4997637;28;20772;-64
2023/09/24 12:24:05;;;;;;;1.50;0.87;;;23.60;41.50;;;;;;5000671;28;20778;-63
2023/09/24 12:26:31;;;;;;;1.00;0.90;;;23.60;41.50;;;;;;5001381;28;20214;-64
2023/09/24 12:28:57;;;;;;;0.93;0.90;;;23.60;41.50;;;;;;5000037;28;20352;-61
2023/09/24 12:31:22;;;;;;;1.03;0.93;;;23.60;41.50;;;;;;5006625;28;20365;-68
2023/09/24 12:33:48;;;;;;;1.03;0.93;;;23.60;41.50;;;;;;5003680;28;20585;-67
2023/09/24 12:36:14;;;;;;;1.20;1.10;;;23.60;41.50;;;;;;4999167;28;20218;-60
2023/09/24 12:38:39;;;;;;;1.30;1.20;;;23.60;41.60;;;;;;5006916;28;20222;-59
2023/09/24 12:41:05;;;;;;;1.60;1.50;;;23.60;41.60;;;;;;5005538;28;20229;-61
2023/09/24 12:43:30;;;;;;;4.03;1.90;;;23.60;41.60;;;;;;5001194;28;20219;-70
2023/09/24 12:45:57;;;;;;;1.63;1.53;;;23.60;41.60;;;;;;5002198;28;21791;-59
2023/09/24 12:48:25;;;;;;;2.17;1.80;;;23.60;41.60;;;;;;4994117;28;20336;-65
2023/09/24 12:50:50;;;;;;;1.90;1.80;;;23.60;41.70;;;;;;4991757;28;20479;-66